Gogama, Canada
Current Conditions -  °F | °C
As of 3:00 PM on Friday 28 Nov 2014 (Local Time) from CYTS Reporting Station
Few Clouds Few Clouds  
Wind Chill: -8°   Ceiling: Unl
Heat Index:   Visibility: 15mi
Dew Point: -2°   Wind: 8mph
Humidity: 72%   Direction: 170°S
Pressure: 30.06"   Gusts: NA
Location:  47.67°N, 81.72°W
Report Text: CYTS 282000Z 17007KT 15SM FEW240 M15/M19 A3006 RMK CI1 SLP214
Loading
Personal Weather Stations






























Interactive Weather Map New forecast layout! Learn more

10-Day Weather Forecast

Advertisements
Track Severe Weather on mobile